Hauptseite
METAR-TAF:

METAR-TAF

Flughäfen :

Leipzig-Altenburg Airport

Altenburg, Deutschland

Breite: 50-58N, Länge: 012-30E, Höhe: 195 m

Beobachtung

Neuester Wetterbericht von vor 34 Minuten, um 02:50 UTC
Wind 6 kt aus Ost/Nordost, variierte zwischen Nord/Nordost und Ost
Temperatur 1°C
Luftfeuchtigkeit 86%
Luftdruck 1015 hPa
Sichtweite: 9000 m

METAR: EDAC 210250Z AUTO 07006KT 030V100 9000 // OVC020/// 01/M01 Q1015

Zeit: 04:24 (03:24 UTC)

Prognose

Neuester Wetterbericht von vor 10 Stunden und 24 Minuten, um 17:00 UTC
Gültige Prognose vom 20 um 18 UTC bis 21 um 03 UTC
Wind 8 kt aus Ost/Nordost
Sichtweite: 6000 m
Geschlossene Wolkendecke in der Höhe von 1500 ft
Zeitweise
vom 20 um 18 UTC bis 21 um 03 UTC
Sichtweite: 4000 m
Durchbrochene Bewölkung in der Höhe von 800 ft
feuchter Dunst

TAF: EDAC 201700Z 2018/2103 07008KT 6000 OVC015 TEMPO 2018/2103 4000 BR BKN008

Wetterbeobachtungen und Prognosen von mehr als 4000 Flughäfen (METAR und TAF Bericht).

Die verfügbaren Stationen werden durch gelbe und rote Markierungen auf der Karte dargestellt.

Führen Sie die Maus auf sie, um den Namen der Station zu sehen.

Darauf klicken, um die Beobachtung von Wetterbeobachtungen und Prognosen zu sehen.

Um die Karte zu ändern : klicken Sie auf den grünen Tasten mit einem schwarzen Kreuz Zum Vergrößern, auf den grünen Button mit einem Gedankenstrich zu verkleinern, oder auf die grünen Pfeile für benachbarte Karten.


METAR-TAF: